Time;durP1;ratioP1;P1;durP2;ratioP2;P2;SDS_P1;SDS_P2;PMS_P1;PMS_P2;Temp;Humidity;BMP_temperature;BMP_pressure;BME280_temperature;BME280_humidity;BME280_pressure;Samples;Min_cycle;Max_cycle;Signal;HPM_P1;HPM_P2
2022/02/09 00:07:30;;;;;;;;;;;19.10;57.80;;;;;;5032774;28;1358;-68
2022/02/09 00:09:56;;;;;;;;;;;19.10;57.90;;;;;;5032520;28;1079;-69
2022/02/09 00:12:28;;;;;;;;;;;19.10;57.90;;;;;;5032946;28;1368;-69
2022/02/09 00:15:13;;;;;;;;;;;19.20;58.50;;;;;;5033021;28;1346;-68
2022/02/09 00:17:46;;;;;;;;;;;19.20;58.00;;;;;;5048145;28;1386;-69
2022/02/09 00:31:40;;;;;;;;;;;19.10;58.00;;;;;;5020328;28;957;-69
2022/02/09 00:36:39;;;;;;;;;;;19.10;58.10;;;;;;5023678;28;1439;-69
2022/02/09 00:39:22;;;;;;;;;;;19.10;58.10;;;;;;5031583;28;1400;-69
2022/02/09 01:11:17;;;;;;;;;;;19.00;58.30;;;;;;5032393;28;1043;-70
2022/02/09 01:38:06;;;;;;;;;;;19.00;58.40;;;;;;5032405;28;1075;-66
2022/02/09 01:42:32;;;;;;;;;;;19.00;58.50;;;;;;5011963;28;1898;-67
2022/02/09 01:56:58;;;;;;;;;;;18.90;58.50;;;;;;5035610;28;1277;-66
2022/02/09 01:59:23;;;;;;;;;;;18.90;58.50;;;;;;5034023;28;1910;-67
2022/02/09 02:01:49;;;;;;;;;;;18.90;58.50;;;;;;5035487;28;1197;-69
2022/02/09 02:04:14;;;;;;;;;;;18.90;58.60;;;;;;5035837;28;1146;-66
2022/02/09 02:06:42;;;;;;;;;;;18.90;58.60;;;;;;5029039;28;1227;-67
2022/02/09 02:09:07;;;;;;;;;;;18.90;58.60;;;;;;5027110;28;1339;-68
2022/02/09 02:11:40;;;;;;;;;;;18.90;58.60;;;;;;5035233;28;1293;-67
2022/02/09 02:17:06;;;;;;;;;;;18.90;58.60;;;;;;5002732;28;1251;-68
2022/02/09 02:19:37;;;;;;;;;;;18.90;58.60;;;;;;5021827;28;1967;-65
2022/02/09 02:22:33;;;;;;;;;;;18.90;58.60;;;;;;5034948;28;1047;-66
2022/02/09 02:25:32;;;;;;;;;;;18.90;58.70;;;;;;5023652;28;1163;-66
2022/02/09 02:33:52;;;;;;;;;;;18.80;58.60;;;;;;5034577;28;1044;-66
2022/02/09 02:36:35;;;;;;;;;;;18.80;58.60;;;;;;5014868;28;1275;-67
2022/02/09 02:47:16;;;;;;;;;;;18.80;58.70;;;;;;5026818;28;1276;-66
2022/02/09 03:08:57;;;;;;;;;;;18.80;58.90;;;;;;5013576;28;1075;-69
2022/02/09 03:11:50;;;;;;;;;;;18.80;58.80;;;;;;5031639;28;1064;-66
2022/02/09 03:14:29;;;;;;;;;;;18.80;58.80;;;;;;5031945;28;1282;-68
2022/02/09 03:17:00;;;;;;;;;;;18.80;58.90;;;;;;5023109;28;1430;-65
2022/02/09 03:25:02;;;;;;;;;;;18.80;58.90;;;;;;5020715;28;1178;-66
2022/02/09 03:49:06;;;;;;;;;;;18.70;58.90;;;;;;5019851;28;1043;-69
2022/02/09 03:51:50;;;;;;;;;;;18.70;58.90;;;;;;5032110;28;1100;-68
2022/02/09 03:54:39;;;;;;;;;;;18.70;59.00;;;;;;5033726;28;1076;-68
2022/02/09 03:57:20;;;;;;;;;;;18.70;59.50;;;;;;5033319;28;1198;-69
2022/02/09 03:59:46;;;;;;;;;;;18.70;59.00;;;;;;5032470;28;1906;-68
2022/02/09 04:02:11;;;;;;;;;;;18.70;59.00;;;;;;5032992;28;1293;-68
2022/02/09 04:04:37;;;;;;;;;;;18.70;59.00;;;;;;5032576;28;1245;-69
2022/02/09 04:07:03;;;;;;;;;;;18.70;59.00;;;;;;5032821;28;1276;-68
2022/02/09 04:09:31;;;;;;;;;;;18.70;59.00;;;;;;5033267;28;1091;-68
2022/02/09 04:12:05;;;;;;;;;;;18.70;59.00;;;;;;5032485;28;1150;-68
2022/02/09 04:14:48;;;;;;;;;;;18.70;59.10;;;;;;5033268;28;1441;-67
2022/02/09 04:17:25;;;;;;;;;;;18.70;59.00;;;;;;5032693;28;1339;-66
2022/02/09 04:20:26;;;;;;;;;;;18.70;59.10;;;;;;5032231;28;1973;-68
2022/02/09 04:36:05;;;;;;;;;;;18.70;59.10;;;;;;5032571;28;1154;-68
2022/02/09 04:39:26;;;;;;;;;;;18.70;59.10;;;;;;5032146;28;1068;-68
2022/02/09 04:44:36;;;;;;;;;;;18.70;59.10;;;;;;5032845;28;1060;-68
2022/02/09 04:52:38;;;;;;;;;;;18.70;59.20;;;;;;5032409;28;1380;-68
2022/02/09 04:58:14;;;;;;;;;;;18.70;59.20;;;;;;4981024;28;1165;-67
2022/02/09 05:00:55;;;;;;;;;;;18.70;59.20;;;;;;5032217;28;1910;-67
2022/02/09 05:22:39;;;;;;;;;;;18.60;59.20;;;;;;5031859;28;1349;-67
2022/02/09 05:27:55;;;;;;;;;;;18.60;59.20;;;;;;5036148;28;1190;-67
2022/02/09 05:30:20;;;;;;;;;;;18.60;59.20;;;;;;5049143;28;1232;-68
2022/02/09 05:32:47;;;;;;;;;;;18.60;59.20;;;;;;5036064;28;1290;-67
2022/02/09 05:35:13;;;;;;;;;;;18.60;59.20;;;;;;5024717;28;1401;-68
2022/02/09 05:37:39;;;;;;;;;;;18.60;59.30;;;;;;5017612;28;1397;-67
2022/02/09 05:40:05;;;;;;;;;;;18.60;59.30;;;;;;5035219;28;1967;-66
2022/02/09 05:42:32;;;;;;;;;;;18.60;59.30;;;;;;5035843;28;1314;-67
2022/02/09 05:44:57;;;;;;;;;;;18.60;59.30;;;;;;5035636;28;1406;-67
2022/02/09 05:48:10;;;;;;;;;;;18.60;59.30;;;;;;5035524;28;1166;-67
2022/02/09 05:50:35;;;;;;;;;;;18.60;59.30;;;;;;5035021;28;1079;-67
2022/02/09 05:58:08;;;;;;;;;;;18.60;59.30;;;;;;5036046;28;1107;-67
2022/02/09 06:00:33;;;;;;;;;;;18.60;59.20;;;;;;5034268;28;1910;-66
2022/02/09 06:03:01;;;;;;;;;;;18.70;59.20;;;;;;5059567;22;2157;-74
2022/02/09 06:05:26;;;;;;;;;;;18.70;59.10;;;;;;5037719;28;1355;-74
2022/02/09 06:07:52;;;;;;;;;;;18.80;59.10;;;;;;5036990;28;1396;-74
2022/02/09 06:10:21;;;;;;;;;;;18.90;59.00;;;;;;5046878;28;1350;-74
2022/02/09 06:12:52;;;;;;;;;;;19.00;59.00;;;;;;5035523;28;1135;-74
2022/02/09 06:15:59;;;;;;;;;;;19.00;58.80;;;;;;5041405;28;1332;-74
2022/02/09 06:21:02;;;;;;;;;;;19.30;58.30;;;;;;5033835;28;1906;-74
2022/02/09 06:23:29;;;;;;;;;;;19.40;58.00;;;;;;5033854;28;1115;-74
2022/02/09 06:25:54;;;;;;;;;;;19.50;57.80;;;;;;5033889;28;1176;-74
2022/02/09 06:28:20;;;;;;;;;;;19.60;57.50;;;;;;5034374;28;1043;-74
2022/02/09 06:30:45;;;;;;;;;;;19.70;57.30;;;;;;5033154;28;1323;-74
2022/02/09 06:33:12;;;;;;;;;;;19.80;57.10;;;;;;5016943;28;1268;-74
2022/02/09 06:35:37;;;;;;;;;;;19.90;56.80;;;;;;5044098;28;1191;-75
2022/02/09 06:38:03;;;;;;;;;;;20.00;56.70;;;;;;5033155;28;1115;-74
2022/02/09 06:40:29;;;;;;;;;;;20.00;56.40;;;;;;5032914;28;1894;-74
2022/02/09 06:42:54;;;;;;;;;;;20.10;56.30;;;;;;5033414;28;1143;-74
2022/02/09 06:45:24;;;;;;;;;;;20.20;56.10;;;;;;5046133;28;1613;-74
2022/02/09 06:47:49;;;;;;;;;;;20.20;55.90;;;;;;5011349;28;2899;-74
2022/02/09 06:50:23;;;;;;;;;;;20.30;55.80;;;;;;5035554;28;2824;-76
2022/02/09 06:52:59;;;;;;;;;;;20.30;55.70;;;;;;5037996;28;1012;-76
2022/02/09 06:55:25;;;;;;;;;;;20.40;55.60;;;;;;5029430;28;1342;-76
2022/02/09 07:00:16;;;;;;;;;;;20.50;55.40;;;;;;5031700;28;1968;-76
2022/02/09 07:02:43;;;;;;;;;;;20.50;55.30;;;;;;5031883;28;1302;-78
2022/02/09 07:05:09;;;;;;;;;;;20.50;54.70;;;;;;5032327;28;1298;-76
2022/02/09 07:07:34;;;;;;;;;;;20.50;54.20;;;;;;5015487;28;1160;-75
2022/02/09 07:10:00;;;;;;;;;;;20.50;54.10;;;;;;5025301;28;1818;-76
2022/02/09 07:12:25;;;;;;;;;;;20.60;54.10;;;;;;5047972;28;1346;-76
2022/02/09 07:14:53;;;;;;;;;;;20.60;54.10;;;;;;5048417;28;1231;-76
2022/02/09 07:17:18;;;;;;;;;;;20.60;54.10;;;;;;5031920;28;1375;-76
2022/02/09 07:19:50;;;;;;;;;;;20.60;54.10;;;;;;5031638;28;1973;-76
2022/02/09 07:22:23;;;;;;;;;;;20.70;54.10;;;;;;5032917;28;1122;-76
2022/02/09 07:24:49;;;;;;;;;;;20.70;54.10;;;;;;5033148;28;1333;-76
2022/02/09 07:27:27;;;;;;;;;;;20.70;54.10;;;;;;5031626;28;1150;-76
2022/02/09 07:29:52;;;;;;;;;;;20.80;54.10;;;;;;5032925;28;1197;-76
2022/02/09 07:32:18;;;;;;;;;;;20.80;54.10;;;;;;5031648;28;1191;-76
2022/02/09 07:34:43;;;;;;;;;;;20.80;54.10;;;;;;5024976;28;1088;-76
2022/02/09 07:37:09;;;;;;;;;;;20.80;54.00;;;;;;5028562;28;1104;-76
2022/02/09 07:39:35;;;;;;;;;;;20.90;54.10;;;;;;5030852;28;1980;-75
2022/02/09 07:42:09;;;;;;;;;;;20.90;54.10;;;;;;5032910;28;1242;-76
2022/02/09 07:44:52;;;;;;;;;;;20.90;54.10;;;;;;5033102;28;1051;-76
2022/02/09 07:52:49;;;;;;;;;;;20.90;54.10;;;;;;5021632;28;1092;-77
2022/02/09 07:55:15;;;;;;;;;;;21.00;54.10;;;;;;5026069;28;1253;-76
2022/02/09 07:57:40;;;;;;;;;;;21.00;54.10;;;;;;5025001;28;1207;-76
2022/02/09 08:00:08;;;;;;;;;;;21.00;54.00;;;;;;5023885;28;1995;-76
2022/02/09 08:02:34;;;;;;;;;;;21.00;54.20;;;;;;5024744;28;1275;-77
2022/02/09 08:04:59;;;;;;;;;;;21.10;54.30;;;;;;5024397;28;1161;-76
2022/02/09 08:07:25;;;;;;;;;;;21.10;54.40;;;;;;5029686;28;1825;-78
2022/02/09 08:09:50;;;;;;;;;;;21.10;54.70;;;;;;5010301;28;1276;-76
2022/02/09 08:20:49;;;;;;;;;;;21.10;54.90;;;;;;5020544;28;1902;-78
2022/02/09 08:33:42;;;;;;;;;;;21.10;55.60;;;;;;5030674;28;1343;-77
2022/02/09 08:36:07;;;;;;;;;;;21.10;55.70;;;;;;5013920;28;1864;-76
2022/02/09 08:38:33;;;;;;;;;;;21.10;55.80;;;;;;5030291;28;1450;-76
2022/02/09 08:40:58;;;;;;;;;;;21.10;55.90;;;;;;5030750;28;1891;-76
2022/02/09 08:43:24;;;;;;;;;;;21.10;55.90;;;;;;5030318;28;1411;-76
2022/02/09 08:45:49;;;;;;;;;;;21.10;55.90;;;;;;5031977;28;1463;-76
2022/02/09 08:48:15;;;;;;;;;;;21.10;55.90;;;;;;5030180;28;1287;-76
2022/02/09 08:50:40;;;;;;;;;;;21.20;55.90;;;;;;5030492;28;1213;-76
2022/02/09 08:53:06;;;;;;;;;;;21.20;56.20;;;;;;5030749;28;1188;-75
2022/02/09 08:55:32;;;;;;;;;;;21.20;56.20;;;;;;5030728;28;1712;-74
2022/02/09 08:57:57;;;;;;;;;;;21.20;56.10;;;;;;5014092;28;1225;-73
2022/02/09 09:00:26;;;;;;;;;;;21.20;56.10;;;;;;5035491;28;1894;-74
2022/02/09 09:03:06;;;;;;;;;;;21.30;56.10;;;;;;5034758;28;1457;-74
2022/02/09 09:05:42;;;;;;;;;;;21.30;56.10;;;;;;5034922;28;940;-75
2022/02/09 09:08:24;;;;;;;;;;;21.30;56.00;;;;;;5035896;28;1508;-74
2022/02/09 10:02:43;;;;;;;;;;;21.40;56.70;;;;;;5024905;28;2012;-75
2022/02/09 10:33:01;;;;;;;;;;;21.20;58.10;;;;;;5019413;28;1048;-75
2022/02/09 10:35:31;;;;;;;;;;;21.20;58.30;;;;;;5033264;28;1067;-75
2022/02/09 10:38:00;;;;;;;;;;;21.20;58.30;;;;;;5034001;28;1560;-75
2022/02/09 10:40:26;;;;;;;;;;;21.10;58.30;;;;;;5032814;28;1954;-75
2022/02/09 10:43:00;;;;;;;;;;;21.10;58.40;;;;;;5033194;28;1224;-75
2022/02/09 10:45:43;;;;;;;;;;;21.10;58.40;;;;;;5033224;28;1443;-74
2022/02/09 10:48:29;;;;;;;;;;;21.10;58.40;;;;;;5032641;28;1259;-76
2022/02/09 10:50:55;;;;;;;;;;;21.10;58.50;;;;;;5032641;28;1398;-74
2022/02/09 10:53:21;;;;;;;;;;;21.10;58.60;;;;;;5032185;28;1146;-74
2022/02/09 10:55:47;;;;;;;;;;;21.10;58.50;;;;;;5015806;28;1251;-74
2022/02/09 10:58:13;;;;;;;;;;;21.10;58.50;;;;;;5013749;28;1193;-75
2022/02/09 11:00:43;;;;;;;;;;;21.10;58.60;;;;;;5029089;28;1965;-75
2022/02/09 11:03:29;;;;;;;;;;;21.10;58.60;;;;;;5029102;28;1052;-74
2022/02/09 11:05:58;;;;;;;;;;;21.10;58.60;;;;;;5030913;28;1482;-74
2022/02/09 11:08:24;;;;;;;;;;;21.10;58.70;;;;;;5031999;28;1315;-74
2022/02/09 11:10:50;;;;;;;;;;;21.00;58.80;;;;;;5032215;28;1377;-74
2022/02/09 11:13:16;;;;;;;;;;;21.00;58.90;;;;;;5032150;28;1092;-74
2022/02/09 11:15:44;;;;;;;;;;;21.00;58.90;;;;;;5026380;28;1416;-75
2022/02/09 11:18:12;;;;;;;;;;;21.10;59.00;;;;;;5031011;28;1281;-74
2022/02/09 11:20:56;;;;;;;;;;;21.00;59.00;;;;;;5031447;28;1965;-73
2022/02/09 11:23:45;;;;;;;;;;;21.00;59.00;;;;;;5027221;28;1199;-74
2022/02/09 11:26:32;;;;;;;;;;;21.00;58.90;;;;;;5044575;28;1302;-74
2022/02/09 11:29:18;;;;;;;;;;;21.00;59.10;;;;;;5026792;28;1441;-75
2022/02/09 11:34:48;;;;;;;;;;;21.00;59.20;;;;;;5021654;28;1012;-74
2022/02/09 11:37:14;;;;;;;;;;;21.00;59.20;;;;;;5031181;28;1179;-75
2022/02/09 11:39:40;;;;;;;;;;;21.00;59.30;;;;;;5031341;28;1344;-74
2022/02/09 11:42:26;;;;;;;;;;;21.00;59.30;;;;;;5031434;28;1989;-74
2022/02/09 11:45:11;;;;;;;;;;;20.90;59.30;;;;;;5031517;28;1357;-74
2022/02/09 11:56:09;;;;;;;;;;;20.90;59.50;;;;;;5030930;28;1239;-74
2022/02/09 12:08:57;;;;;;;;;;;21.00;59.20;;;;;;5019266;28;1160;-67
2022/02/09 12:11:35;;;;;;;;;;;21.00;59.10;;;;;;5019499;28;1611;-67
2022/02/09 12:14:13;;;;;;;;;;;21.00;59.00;;;;;;5015401;28;1616;-67
2022/02/09 12:17:12;;;;;;;;;;;21.00;59.00;;;;;;5017490;28;1084;-67
2022/02/09 12:19:44;;;;;;;;;;;21.00;59.00;;;;;;5019112;28;1611;-67
2022/02/09 12:22:17;;;;;;;;;;;21.00;59.50;;;;;;5032530;28;1911;-67
2022/02/09 12:24:43;;;;;;;;;;;21.10;59.40;;;;;;5003024;28;1613;-67
2022/02/09 12:27:09;;;;;;;;;;;21.00;59.40;;;;;;5015559;28;1669;-68
2022/02/09 12:29:36;;;;;;;;;;;21.10;59.40;;;;;;5007189;28;1560;-67
2022/02/09 12:32:03;;;;;;;;;;;21.10;59.40;;;;;;5010777;28;1681;-67
2022/02/09 12:34:29;;;;;;;;;;;21.00;59.20;;;;;;5014840;28;1356;-67
2022/02/09 12:36:55;;;;;;;;;;;21.00;59.30;;;;;;5032843;28;1410;-67
2022/02/09 12:39:21;;;;;;;;;;;21.10;59.30;;;;;;5015250;28;1624;-67
2022/02/09 12:41:47;;;;;;;;;;;21.00;59.40;;;;;;5032803;28;1910;-67
2022/02/09 12:44:16;;;;;;;;;;;21.00;59.40;;;;;;4995982;28;1704;-67
2022/02/09 12:46:44;;;;;;;;;;;21.00;59.60;;;;;;5011128;28;1754;-67
2022/02/09 12:49:10;;;;;;;;;;;21.00;59.80;;;;;;5032692;28;1426;-67
2022/02/09 12:51:36;;;;;;;;;;;21.00;59.80;;;;;;5015347;28;1482;-68
2022/02/09 12:54:01;;;;;;;;;;;21.00;59.80;;;;;;5015376;28;1721;-67
2022/02/09 12:56:28;;;;;;;;;;;21.00;59.80;;;;;;5032904;28;1593;-67
2022/02/09 12:58:54;;;;;;;;;;;21.00;59.90;;;;;;5015076;28;1606;-67
2022/02/09 13:01:20;;;;;;;;;;;21.00;59.90;;;;;;5015130;28;1966;-67
2022/02/09 13:03:45;;;;;;;;;;;21.00;59.90;;;;;;5032654;28;1444;-66
2022/02/09 13:06:10;;;;;;;;;;;21.00;59.20;;;;;;5014852;28;1345;-66
2022/02/09 13:08:36;;;;;;;;;;;21.00;57.40;;;;;;5032355;28;1386;-65
2022/02/09 13:11:11;;;;;;;;;;;20.90;56.50;;;;;;5032141;28;1065;-66
2022/02/09 13:13:38;;;;;;;;;;;20.90;55.80;;;;;;5032597;28;1314;-66
2022/02/09 13:16:23;;;;;;;;;;;20.80;55.10;;;;;;5011510;28;2111;-66
2022/02/09 13:19:05;;;;;;;;;;;20.80;54.90;;;;;;5027744;28;1257;-66
2022/02/09 13:52:43;;;;;;;;;;;20.40;53.50;;;;;;5020968;28;1072;-67
2022/02/09 14:14:50;;;;;;;;;;;20.40;54.60;;;;;;5029636;28;1398;-68
2022/02/09 14:34:16;;;;;;;;;;;20.30;55.30;;;;;;5027322;28;1140;-66
2022/02/09 14:47:13;;;;;;;;;;;20.30;55.30;;;;;;5021030;28;1442;-67
2022/02/09 14:54:46;;;;;;;;;;;20.30;55.90;;;;;;5033897;28;1262;-67
2022/02/09 14:57:17;;;;;;;;;;;20.20;55.90;;;;;;5033385;28;1086;-67
2022/02/09 15:02:34;;;;;;;;;;;20.20;56.00;;;;;;5034016;28;1902;-67
2022/02/09 15:07:46;;;;;;;;;;;20.20;56.00;;;;;;5017191;28;1131;-67
2022/02/09 15:12:57;;;;;;;;;;;20.20;56.10;;;;;;5032675;28;1291;-67
2022/02/09 15:18:21;;;;;;;;;;;20.20;56.20;;;;;;5015963;28;1354;-66
2022/02/09 15:21:17;;;;;;;;;;;20.20;56.20;;;;;;5029477;28;1914;-67
2022/02/09 15:23:43;;;;;;;;;;;20.20;56.20;;;;;;5007388;28;1278;-66
2022/02/09 15:26:09;;;;;;;;;;;20.20;56.30;;;;;;5034146;28;1238;-66
2022/02/09 15:28:36;;;;;;;;;;;20.10;56.30;;;;;;5017059;28;1263;-67
2022/02/09 15:31:40;;;;;;;;;;;20.10;56.30;;;;;;5039379;28;967;-67
2022/02/09 15:34:04;;;;;;;;;;;20.10;56.40;;;;;;5032251;28;1369;-66
2022/02/09 15:37:10;;;;;;;;;;;20.10;56.40;;;;;;5034115;28;1095;-68
2022/02/09 15:39:25;;;;;;;;;;;20.10;56.40;;;;;;5034652;28;1192;-68
2022/02/09 15:58:46;;;;;;;;;;;20.10;56.60;;;;;;5033490;28;1136;-67
2022/02/09 16:09:40;;;;;;;;;;;20.00;56.70;;;;;;5032480;28;1059;-67
2022/02/09 16:23:01;;;;;;;;;;;20.00;56.80;;;;;;5032305;28;1310;-67
2022/02/09 16:25:48;;;;;;;;;;;20.00;56.80;;;;;;5017212;28;1462;-69
2022/02/09 16:37:12;;;;;;;;;;;20.00;56.90;;;;;;5023557;28;1025;-68
2022/02/09 16:44:38;;;;;;;;;;;19.90;56.90;;;;;;5032971;28;1323;-64
2022/02/09 16:47:29;;;;;;;;;;;20.00;57.00;;;;;;5033116;28;1135;-66
2022/02/09 16:52:25;;;;;;;;;;;20.00;57.00;;;;;;5033025;28;1366;-67
2022/02/09 17:08:33;;;;;;;;;;;20.00;57.00;;;;;;5032342;28;1404;-65
2022/02/09 17:19:12;;;;;;;;;;;19.90;57.00;;;;;;5012483;28;1434;-68
2022/02/09 17:21:37;;;;;;;;;;;19.90;57.00;;;;;;5019588;28;2298;-67
2022/02/09 17:24:03;;;;;;;;;;;20.00;57.10;;;;;;5007658;28;2281;-65
2022/02/09 17:26:28;;;;;;;;;;;19.90;57.10;;;;;;5036227;28;1068;-65
2022/02/09 17:29:02;;;;;;;;;;;19.90;57.10;;;;;;5035338;28;1360;-65
2022/02/09 17:31:53;;;;;;;;;;;19.90;57.10;;;;;;5019465;28;820;-65
2022/02/09 17:37:52;;;;;;;;;;;19.90;57.10;;;;;;5036439;28;1304;-66
2022/02/09 17:53:24;;;;;;;;;;;19.90;57.20;;;;;;5033238;28;1272;-68
2022/02/09 17:58:25;;;;;;;;;;;19.90;57.20;;;;;;5035448;28;1482;-67
2022/02/09 18:00:51;;;;;;;;;;;19.90;57.20;;;;;;5018739;28;1890;-67
2022/02/09 18:05:55;;;;;;;;;;;19.90;57.20;;;;;;5030788;28;1742;-71
2022/02/09 18:11:34;;;;;;;;;;;19.90;57.20;;;;;;5026430;28;1584;-70
2022/02/09 18:13:59;;;;;;;;;;;19.90;57.20;;;;;;5032106;28;1365;-70
2022/02/09 18:43:16;;;;;;;;;;;19.80;57.20;;;;;;5048094;28;1318;-71
2022/02/09 18:45:52;;;;;;;;;;;19.90;57.30;;;;;;5033170;28;1413;-70
2022/02/09 18:48:49;;;;;;;;;;;19.80;57.20;;;;;;5033077;28;1354;-70
2022/02/09 18:59:50;;;;;;;;;;;19.90;57.30;;;;;;5034419;28;976;-70
2022/02/09 19:29:57;;;;;;;;;;;19.80;57.30;;;;;;5033020;28;1352;-72
2022/02/09 19:40:39;;;;;;;;;;;19.80;57.30;;;;;;5033045;28;1147;-72
2022/02/09 19:46:18;;;;;;;;;;;19.80;57.40;;;;;;5032831;28;1387;-71
2022/02/09 19:48:52;;;;;;;;;;;19.80;57.40;;;;;;5033148;28;1168;-73
2022/02/09 19:51:38;;;;;;;;;;;19.80;57.40;;;;;;5047863;28;1111;-74
2022/02/09 19:56:51;;;;;;;;;;;19.80;57.40;;;;;;5043125;28;1135;-72
2022/02/09 19:59:20;;;;;;;;;;;19.80;57.40;;;;;;5033030;28;1100;-73
2022/02/09 20:01:46;;;;;;;;;;;19.80;57.40;;;;;;5033211;28;1897;-74
2022/02/09 20:04:12;;;;;;;;;;;19.80;57.40;;;;;;5048725;28;1358;-74
2022/02/09 20:06:37;;;;;;;;;;;19.80;57.40;;;;;;5032123;28;1425;-74
2022/02/09 20:09:03;;;;;;;;;;;19.80;57.40;;;;;;5032305;28;1091;-74
2022/02/09 20:11:29;;;;;;;;;;;19.70;57.40;;;;;;5037037;28;1702;-73
2022/02/09 20:13:54;;;;;;;;;;;19.80;57.40;;;;;;5044156;28;1572;-73
2022/02/09 20:16:22;;;;;;;;;;;19.80;57.40;;;;;;5034052;28;1593;-73
2022/02/09 20:18:48;;;;;;;;;;;19.80;57.40;;;;;;5037195;28;1424;-72
2022/02/09 20:21:14;;;;;;;;;;;19.80;57.40;;;;;;5032430;28;1972;-73
2022/02/09 20:23:39;;;;;;;;;;;19.80;57.40;;;;;;5041806;28;1327;-73
2022/02/09 20:26:09;;;;;;;;;;;19.80;57.50;;;;;;5054943;28;1327;-73
2022/02/09 20:28:36;;;;;;;;;;;19.80;57.40;;;;;;5042487;28;965;-72
2022/02/09 20:31:07;;;;;;;;;;;19.80;57.50;;;;;;5015965;28;1195;-72
2022/02/09 20:33:39;;;;;;;;;;;19.70;57.40;;;;;;5036082;28;1395;-72
2022/02/09 20:36:06;;;;;;;;;;;19.80;57.50;;;;;;5040134;28;1221;-72
2022/02/09 20:38:32;;;;;;;;;;;19.80;57.50;;;;;;5031507;28;1386;-72
2022/02/09 20:41:03;;;;;;;;;;;19.70;57.40;;;;;;5031209;28;1902;-72
2022/02/09 20:43:31;;;;;;;;;;;19.70;57.40;;;;;;5031735;28;1442;-72
2022/02/09 20:46:02;;;;;;;;;;;19.70;57.40;;;;;;5031533;28;1191;-72
2022/02/09 20:48:27;;;;;;;;;;;19.80;57.50;;;;;;5031385;28;1357;-72
2022/02/09 20:50:53;;;;;;;;;;;19.70;57.50;;;;;;5032685;28;1082;-73
2022/02/09 20:53:19;;;;;;;;;;;19.70;57.40;;;;;;5032514;28;1294;-72
2022/02/09 20:55:46;;;;;;;;;;;19.70;57.40;;;;;;5047632;28;1276;-74
2022/02/09 20:58:11;;;;;;;;;;;19.70;57.50;;;;;;5031368;28;1098;-74
2022/02/09 21:03:07;;;;;;;;;;;19.70;57.50;;;;;;5048049;28;1076;-74
2022/02/09 21:11:13;;;;;;;;;;;19.70;57.50;;;;;;5031372;28;1028;-73
2022/02/09 21:19:13;;;;;;;;;;;19.70;57.40;;;;;;5032303;28;1439;-74
2022/02/09 21:22:00;;;;;;;;;;;19.70;57.50;;;;;;5031589;28;1902;-72
2022/02/09 21:56:38;;;;;;;;;;;19.80;57.20;;;;;;5032315;28;1063;-74
2022/02/09 22:20:44;;;;;;;;;;;19.70;57.50;;;;;;5041200;28;2038;-74
2022/02/09 22:28:27;;;;;;;;;;;19.70;57.60;;;;;;5050156;28;924;-70
2022/02/09 22:31:21;;;;;;;;;;;19.70;57.70;;;;;;5047221;28;1942;-71
2022/02/09 22:50:25;;;;;;;;;;;19.60;57.90;;;;;;5034547;28;1110;-73
2022/02/09 22:55:41;;;;;;;;;;;19.50;57.90;;;;;;5035163;28;1241;-73
2022/02/09 22:58:09;;;;;;;;;;;19.50;58.00;;;;;;5033838;28;1168;-73
2022/02/09 23:00:48;;;;;;;;;;;19.50;58.00;;;;;;5033172;28;1902;-73
2022/02/09 23:03:20;;;;;;;;;;;19.50;58.10;;;;;;5024403;28;1087;-73
2022/02/09 23:11:38;;;;;;;;;;;19.50;58.20;;;;;;5034647;28;1062;-73
2022/02/09 23:54:35;;;;;;;;;;;19.30;58.60;;;;;;5033829;28;1379;-73
